| Record Date MM/DD/YYYY | Record Julian Date NNN day of the year | Air Temperature Max (Degrees Fahrenheit F) | Time Max Air Temperature HH:MM:SS This is the time of max air temperature standard time. | Air Temperature Min (Degrees Fahrenheit F) | Time Min Air Temperature HH:MM:SS This is the time of min air temperature standard time. | Air Temperature Observed (Degrees Fahrenheit F) This is an instantaneous reading for air temperature at 7:00:00 standard time. | Relative Humidity Max (Percent) | Time Max Relative Humidity HH:MM:SS This is the time of max relative humidity standard time. | Relative Humidity Min (Percent) | Time Min Relative Humidity HH:MM:SS This is the time of min relative humidity standard time. | Relative Humidity Observed (Percent) This is an instantaneous reading at 7:00:00 standard time. | Precipitation (Inches n.nn) total rain fall that occurred for the day. | Pan Evaporation (Inches n.nn) total evaporation that occured for the day. | Wind Run (Miles) Wind travel for the day. | Wind Speed (Miles Per Hour) Resultant / Average speed for the day. | Wind Direction (Degrees) Resultant Direction for the day | Solar Radiation (Langley's) that occurred for the day. | Soil Temperature Max at 2 inch depth (Degrees Fahrenheit F) that occurred during the day. | Time Max Soil temperature at 2 inches HH:MM:SS This is the time of max 2 inch soil temperature standard time. | Soil Temperature Min at 2 inch depth (Degrees Fahrenheit F) that occurred during the day. | Time Min Soil temperature at 2 inches HH:MM:SS This is the time of min 2 inch soil temperature standard time. | Soil Temperature Observed at 2 inch depth (Degrees Fahrenheit F) This is an instantaneous reading 2 inch soil temperature at 7:00:00 standard time. | Soil Temperature Max at 4 inch depth (Degrees Fahrenheit F) that occurred during the day. | Time Max Soil temperature at 4 inches HH:MM:SS This is the time of max 4 inch soil temperature standard time. | Soil Temperature Min at 4 inch depth (Degrees Fahrenheit F) that occurred during the day. | Time Min Soil temperature at 4 inches HH:MM:SS This is the time of min 4 inch soil temperature standard time. | Soil Temperature Observed at 4 inch depth (Degrees Fahrenheit F) This is an instantaneous reading 4 inch soil temperature at 7:00:00 standard time. | DD50 Degree Days 50 Fahrenheit. | Adjusted DD50 Degree Days 50 Fahrenheit adjusted for latitude. | DD60 Degree Days 60 Fahrenheit. |
|---|---|---|---|---|---|---|---|---|---|---|---|---|---|---|---|---|---|---|---|---|---|---|---|---|---|---|---|---|---|---|
| 04/10/2026 | 100 | 83 | 15:05:03 | 52 | 5:03:01 | 62 | 88 | 5:12:04 | 36 | 16:05:04 | 75 | 0 | 98 | 4.1 | 167 | 598 | 76 | 14:50:02 | 64 | 6:56:01 | 64 | 73 | 16:57:00 | 65 | 8:16:02 | 65 | 17.5 | 18.72 | 7.5 | |
| 04/11/2026 | 101 | 86 | 15:15:01 | 56 | 3:24:04 | 64 | 91 | 3:31:02 | 37 | 15:47:01 | 79 | 0 | 91 | 3.8 | 170 | 557 | 77 | 14:21:01 | 66 | 6:43:02 | 66 | 74 | 17:06:03 | 66 | 7:50:02 | 67 | 21 | 22.26 | 11 | |
| 04/12/2026 | 102 | 87 | 13:48:01 | 57 | 5:58:00 | 66 | 88 | 6:12:02 | 34 | 13:47:01 | 78 | 0 | 256 | 10.7 | 191 | 516 | 75 | 15:07:04 | 67 | 6:51:05 | 67 | 73 | 16:32:05 | 68 | 7:59:02 | 68 | 22 | 23.29 | 12 | |
| 04/13/2026 | 103 | 85 | 13:31:00 | 69 | 4:52:05 | 70 | 83 | 6:27:03 | 55 | 15:24:01 | 82 | 0 | 245 | 10.2 | 194 | 374 | 75 | 16:09:02 | 70 | 7:09:01 | 70 | 73 | 17:20:00 | 70 | 8:22:02 | 70 | 27 | 27.32 | 17 | |
| 04/14/2026 | 104 | 88 | 14:33:04 | 66 | 5:17:02 | 70 | 87 | 5:25:00 | 45 | 15:58:05 | 82 | 0 | 241 | 10.1 | 204 | 569 | 78 | 15:17:05 | 69 | 6:48:02 | 69 | 76 | 17:06:03 | 70 | 7:43:05 | 70 | 27 | 27.35 | 17 | |
| 04/15/2026 | 105 | 88 | 14:22:00 | 66 | 4:30:03 | 70 | 82 | 5:11:01 | 36 | 14:15:03 | 79 | 0 | 249 | 10.4 | 200 | 573 | 79 | 14:54:00 | 70 | 6:48:02 | 70 | 76 | 16:33:03 | 71 | 8:12:02 | 71 | 27 | 27.38 | 17 | |
| 04/16/2026 | 106 | 88 | 15:01:00 | 68 | 23:43:03 | 72 | 83 | 5:51:05 | 40 | 15:06:00 | 80 | 0 | 203 | 8.5 | 208 | 488 | 80 | 15:09:05 | 72 | 6:53:03 | 72 | 77 | 16:34:00 | 72 | 8:17:02 | 72 | 28 | 27.41 | 18 | |
| 04/17/2026 | 107 | 90 | 15:09:00 | 65 | 4:03:03 | 72 | 89 | 5:31:05 | 43 | 14:48:04 | 81 | 0 | 239 | 9.9 | 198 | 553 | 80 | 15:21:02 | 71 | 6:18:03 | 71 | 77 | 16:31:04 | 72 | 7:28:04 | 72 | 27.5 | 27.44 | 17.5 | |
| 04/18/2026 | 108 | 77 | 9:09:02 | 52 | 19:31:00 | 71 | 93 | 16:17:00 | 70 | 9:38:01 | 81 | 0.1 | 236 | 9.8 | 320 | 149 | 75 | 0:00:00 | 67 | 23:54:03 | 73 | 75 | 0:00:00 | 69 | 23:59:03 | 73 | 14.5 | 15.97 | 4.5 | |
| 04/19/2026 | 109 | 72 | 14:36:01 | 45 | 23:54:05 | 49 | 96 | 6:18:04 | 27 | 16:12:01 | 95 | 0 | 107 | 4.4 | 5 | 611 | 75 | 14:53:01 | 63 | 6:58:02 | 63 | 72 | 17:05:00 | 65 | 8:31:00 | 66 | 8.5 | 10 | 0 | |
| 04/20/2026 | 110 | 79 | 14:58:05 | 41 | 5:29:00 | 55 | 92 | 5:02:04 | 27 | 14:59:01 | 74 | 0 | 77 | 3.2 | 196 | 616 | 75 | 14:53:04 | 61 | 6:33:00 | 62 | 72 | 17:03:00 | 64 | 7:47:04 | 64 | 10 | 11.53 | 0 | |
| 04/21/2026 | 111 | 84 | 14:25:04 | 48 | 2:46:03 | 59 | 88 | 4:02:00 | 23 | 14:52:04 | 72 | 0 | 146 | 6.1 | 196 | 501 | 74 | 15:10:04 | 63 | 6:18:02 | 63 | 71 | 17:07:05 | 65 | 7:50:03 | 65 | 16 | 17.56 | 6 | |
| 04/22/2026 | 112 | 85 | 13:58:02 | 51 | 4:57:03 | 62 | 85 | 5:06:04 | 26 | 14:51:04 | 75 | 0 | 147 | 6.1 | 188 | 625 | 77 | 14:53:01 | 65 | 6:07:01 | 65 | 74 | 17:01:00 | 66 | 7:39:03 | 66 | 18 | 19.58 | 8 | |
| 04/23/2026 | 113 | 87 | 14:59:01 | 67 | 0:06:01 | 69 | 83 | 6:36:03 | 35 | 15:02:00 | 82 | 0 | 227 | 9.5 | 185 | 594 | 79 | 15:25:04 | 69 | 6:35:02 | 69 | 76 | 17:08:04 | 69 | 7:10:04 | 70 | 27 | 27.61 | 17 | |
| 04/24/2026 | 114 | 80 | 11:00:02 | 61 | 22:25:04 | 68 | 96 | 22:36:05 | 60 | 11:17:04 | 84 | 1.21 | 224 | 9.3 | 172 | 163 | 74 | 11:41:02 | 67 | 23:48:04 | 71 | 73 | 0:00:04 | 68 | 23:58:00 | 71 | 20.5 | 22.14 | 10.5 | |
| 04/25/2026 | 115 | 81 | 14:53:04 | 60 | 5:15:02 | 64 | 97 | 6:37:00 | 64 | 17:29:01 | 96 | 0.12 | 63 | 2.6 | 75 | 515 | 77 | 15:43:05 | 66 | 6:36:04 | 66 | 75 | 17:20:03 | 67 | 7:24:01 | 67 | 20.5 | 22.16 | 10.5 | |
| 04/26/2026 | 116 | 84 | 15:43:00 | 66 | 5:03:03 | 71 | 94 | 4:14:02 | 53 | 14:32:03 | 85 | 0 | 97 | 4.1 | 168 | 557 | 79 | 15:20:04 | 70 | 6:49:00 | 70 | 76 | 17:14:05 | 71 | 7:43:03 | 71 | 25 | 26.69 | 15 | |
| 04/27/2026 | 117 | 83 | 13:36:05 | 71 | 2:24:03 | 73 | 92 | 6:06:02 | 74 | 13:38:02 | 90 | 0 | 241 | 10.0 | 193 | 270 | 76 | 14:24:02 | 73 | 6:40:03 | 73 | 75 | 17:15:00 | 73 | 7:57:01 | 73 | 27 | 27.72 | 17 | |
| 04/28/2026 | 118 | 79 | 13:28:00 | 70 | 21:29:01 | 73 | 98 | 15:36:05 | 79 | 0:23:05 | 87 | 0.73 | 198 | 8.3 | 197 | 150 | 75 | 13:41:00 | 72 | 23:57:04 | 72 | 74 | 0:00:00 | 72 | 23:55:05 | 73 | 24.5 | 26.24 | 14.5 | |
| 04/29/2026 | 119 | 72 | 12:29:02 | 62 | 23:49:05 | 70 | 95 | 5:38:02 | 78 | 12:29:05 | 92 | 0.11 | 181 | 7.6 | 12 | 269 | 75 | 14:50:05 | 70 | 23:58:02 | 72 | 74 | 16:09:02 | 71 | 23:57:04 | 72 | 17 | 18.77 | 7 | |
| 04/30/2026 | 120 | 67 | 12:53:00 | 57 | 5:38:03 | 58 | 91 | 0:38:02 | 60 | 13:14:04 | 78 | 0 | 178 | 7.4 | 42 | 413 | 73 | 13:42:05 | 67 | 7:37:00 | 67 | 72 | 16:07:03 | 68 | 8:56:00 | 69 | 12 | 13.79 | 2 | |
| 05/01/2026 | 121 | 67 | 16:07:03 | 55 | 5:17:04 | 57 | 86 | 5:11:01 | 56 | 15:57:00 | 80 | 0 | 125 | 5.2 | 31 | 227 | 68 | 17:04:02 | 65 | 23:59:02 | 66 | 69 | 0:00:00 | 67 | 23:57:00 | 67 | 11 | 12.82 | 1 | |
| 05/02/2026 | 122 | 74 | 14:57:01 | 48 | 5:07:04 | 55 | 91 | 0:00:00 | 33 | 14:10:04 | 76 | 0 | 105 | 4.4 | 354 | 608 | 74 | 15:35:01 | 63 | 6:55:01 | 63 | 72 | 17:15:05 | 64 | 7:52:04 | 64 | 11 | 12.84 | 1 | |
| 05/03/2026 | 123 | 79 | 14:08:04 | 46 | 5:00:00 | 55 | 91 | 5:07:01 | 31 | 16:03:02 | 75 | 0 | 112 | 4.7 | 184 | 678 | 74 | 15:25:01 | 63 | 6:46:04 | 63 | 73 | 17:28:01 | 65 | 8:00:04 | 65 | 12.5 | 14.36 | 2.5 | |
| 05/04/2026 | 124 | 81 | 14:01:02 | 59 | 4:40:00 | 63 | 82 | 4:40:03 | 38 | 13:09:03 | 76 | 0 | 229 | 9.5 | 216 | 657 | 76 | 15:05:01 | 66 | 6:51:00 | 66 | 74 | 17:03:03 | 67 | 7:40:01 | 67 | 20 | 21.88 | 10 | |
| 05/05/2026 | 125 | 76 | 13:46:03 | 62 | 5:15:00 | 66 | 83 | 9:19:02 | 66 | 0:15:01 | 75 | 0 | 263 | 11.0 | 198 | 220 | 71 | 17:59:04 | 67 | 6:43:02 | 67 | 71 | 0:01:02 | 68 | 7:36:05 | 68 | 19 | 20.91 | 9 | |
| 05/06/2026 | 126 | 75 | 0:06:02 | 54 | 23:52:00 | 58 | 95 | 23:56:03 | 72 | 4:38:04 | 92 | 0.1 | 238 | 9.9 | 15 | 145 | 71 | 3:52:01 | 65 | 23:59:02 | 70 | 71 | 5:02:05 | 67 | 23:58:03 | 70 | 14.5 | 16.43 | 4.5 | |
| 05/07/2026 | 127 | 71 | 13:25:03 | 52 | 23:59:02 | 57 | 95 | 0:07:05 | 46 | 13:36:03 | 86 | 0.01 | 142 | 5.9 | 23 | 584 | 75 | 13:57:03 | 64 | 6:41:00 | 64 | 72 | 17:05:04 | 65 | 7:38:01 | 65 | 11.5 | 13.45 | 1.5 | |
| 05/08/2026 | 128 | 76 | 14:28:04 | 48 | 5:01:04 | 60 | 97 | 5:47:04 | 49 | 12:38:04 | 76 | 0 | 115 | 4.8 | 165 | 578 | 74 | 15:31:04 | 64 | 6:35:02 | 64 | 72 | 17:26:00 | 66 | 7:27:04 | 66 | 12 | 13.97 | 2 | |
| Average | 80.14 | 57.72 | 64.1 | 90.03 | 48.03 | 81.48 | 0.08 | 174.93 | 460.62 | 75.41 | 66.86 | 67.52 | 73.52 | 67.97 | 68.52 | 18.93 | 20.26 | 8.98 | ||||||||||||
| Total | 2.38 | 549 | 587.59 | 260.5 |